Dallas, Texas
Traffic Map
Current Weather Conditions
Dallas, Texas
Overcast
Overcast
23°
Feels Like: 23°
Wind Chill: 23° Ceiling: 18000
Heat Index: 23° Visibility: 10mi
Dew Point: 13° Wind: 6mph
Humidity: 53% Direction: 110° (ESE)
Pressure: 30.1in Gusts: 0mph
Raw Report DataKDAL 230153Z 11005KT 10SM BKN180 OVC270 23/13 A3010 RMK AO2 SLP187 T02330133
Traffic Incident Summary
Active as of:
Severity:
Category:
InformationThere was an issue retrieving the traffic information for this location. Please try a different location or try again shortly.
Advertisements
Track Severe Weather on mobile